Time;durP1;ratioP1;P1;durP2;ratioP2;P2;SDS_P1;SDS_P2;PMS_P1;PMS_P2;Temp;Humidity;BMP_temperature;BMP_pressure;BME280_temperature;BME280_humidity;BME280_pressure;Samples;Min_cycle;Max_cycle;Signal;HPM_P1;HPM_P2
2022/12/27 00:00:42;;;;;;;19.73;12.17;;;7.80;99.90;;;;;;5032479;28;20197;-84
2022/12/27 00:03:11;;;;;;;23.17;12.80;;;7.70;99.90;;;;;;5033720;28;20202;-85
2022/12/27 00:05:42;;;;;;;20.80;12.33;;;7.80;99.90;;;;;;5032647;28;20194;-84
2022/12/27 00:08:09;;;;;;;21.03;12.47;;;7.80;99.90;;;;;;5033959;28;20678;-85
2022/12/27 00:10:37;;;;;;;22.33;12.43;;;7.70;99.90;;;;;;5032554;28;20539;-83
2022/12/27 00:13:04;;;;;;;22.73;12.33;;;7.80;99.90;;;;;;5033943;28;20245;-83
2022/12/27 00:15:33;;;;;;;21.43;12.83;;;7.80;99.90;;;;;;5032457;28;20293;-83
2022/12/27 00:18:01;;;;;;;24.77;12.97;;;7.80;99.90;;;;;;5034011;28;20201;-84
2022/12/27 00:20:28;;;;;;;20.80;12.90;;;7.80;99.90;;;;;;5032517;28;20288;-84
2022/12/27 00:22:55;;;;;;;22.80;13.63;;;7.80;99.90;;;;;;5031997;28;20195;-84
2022/12/27 00:25:22;;;;;;;23.97;13.50;;;7.80;99.90;;;;;;5031898;28;20229;-86
2022/12/27 00:27:49;;;;;;;24.67;13.47;;;7.80;99.90;;;;;;5032226;28;20221;-86
2022/12/27 00:30:16;;;;;;;24.67;13.20;;;7.80;99.90;;;;;;5031906;28;20198;-85
2022/12/27 00:32:43;;;;;;;21.97;12.83;;;7.80;99.90;;;;;;5032948;28;20575;-86
2022/12/27 00:35:10;;;;;;;23.53;12.97;;;7.90;99.90;;;;;;5031757;28;20190;-86
2022/12/27 00:37:37;;;;;;;22.77;13.23;;;7.80;99.90;;;;;;5048447;28;20608;-87
2022/12/27 00:40:05;;;;;;;21.40;13.23;;;7.80;99.90;;;;;;5031927;28;20216;-87
2022/12/27 00:42:32;;;;;;;21.17;12.63;;;7.80;99.90;;;;;;5031707;28;20203;-87
2022/12/27 00:44:59;;;;;;;21.23;12.83;;;7.90;99.90;;;;;;5015594;28;20202;-87
2022/12/27 00:47:27;;;;;;;22.33;13.90;;;7.90;99.90;;;;;;5031522;28;20194;-87
2022/12/27 00:49:54;;;;;;;23.87;13.87;;;7.90;99.90;;;;;;5031952;28;20558;-87
2022/12/27 00:52:21;;;;;;;22.70;13.83;;;7.90;99.90;;;;;;5033087;28;20221;-86
2022/12/27 00:54:49;;;;;;;22.20;13.77;;;7.80;99.90;;;;;;5015900;28;20269;-87
2022/12/27 00:57:16;;;;;;;24.90;13.83;;;7.90;99.90;;;;;;5036793;28;20250;-86
2022/12/27 00:59:43;;;;;;;24.97;14.07;;;7.80;99.90;;;;;;5035616;28;20533;-87
2022/12/27 01:02:10;;;;;;;24.53;12.90;;;7.90;99.90;;;;;;5036598;28;20193;-87
2022/12/27 01:04:38;;;;;;;22.87;13.37;;;7.90;99.90;;;;;;5035348;28;20203;-87
2022/12/27 01:07:05;;;;;;;22.20;13.40;;;7.90;99.90;;;;;;5035255;28;20625;-87
2022/12/27 01:09:32;;;;;;;22.73;12.70;;;8.00;99.90;;;;;;5036033;28;20559;-87
2022/12/27 01:11:59;;;;;;;20.20;11.77;;;8.00;99.90;;;;;;5036389;28;20202;-86
2022/12/27 01:14:26;;;;;;;23.10;12.77;;;8.00;99.90;;;;;;5035097;28;20211;-87
2022/12/27 01:16:56;;;;;;;19.77;12.37;;;8.00;99.90;;;;;;5034937;28;20211;-87
2022/12/27 01:19:26;;;;;;;19.93;11.80;;;8.00;99.90;;;;;;5034992;28;20206;-87
2022/12/27 01:21:54;;;;;;;21.23;11.77;;;8.00;99.90;;;;;;5036730;28;20243;-87
2022/12/27 01:24:21;;;;;;;21.33;11.87;;;8.00;99.90;;;;;;5035103;28;20283;-87
2022/12/27 01:26:48;;;;;;;18.00;10.70;;;8.00;99.90;;;;;;5035200;28;20194;-87
2022/12/27 01:29:15;;;;;;;17.20;10.77;;;8.00;99.90;;;;;;5035342;28;20250;-87
2022/12/27 01:31:42;;;;;;;18.70;11.27;;;8.10;99.90;;;;;;5034771;28;20260;-87
2022/12/27 01:34:09;;;;;;;17.63;11.10;;;8.20;99.90;;;;;;5035976;28;20192;-87
2022/12/27 01:36:36;;;;;;;18.77;10.87;;;8.00;99.90;;;;;;5034722;28;20188;-87
2022/12/27 01:39:03;;;;;;;17.60;10.97;;;8.10;99.90;;;;;;5034761;28;20612;-86
2022/12/27 01:44:48;;;;;;;19.37;10.70;;;8.00;99.90;;;;;;5036346;28;20714;-86
2022/12/27 01:47:41;;;;;;;16.83;10.37;;;8.00;99.90;;;;;;5035950;28;20222;-86
2022/12/27 01:50:12;;;;;;;17.37;10.70;;;8.10;99.90;;;;;;5034461;28;20566;-86
2022/12/27 01:52:49;;;;;;;17.03;10.30;;;8.00;99.90;;;;;;5018191;28;20211;-86
2022/12/27 01:55:27;;;;;;;17.37;9.97;;;8.00;99.90;;;;;;5035630;28;20198;-86
2022/12/27 01:58:02;;;;;;;18.73;10.47;;;8.00;99.90;;;;;;5035735;28;20189;-86
2022/12/27 02:00:32;;;;;;;18.70;10.10;;;8.10;99.90;;;;;;5034227;28;20662;-86
2022/12/27 02:03:02;;;;;;;17.27;9.47;;;8.00;99.90;;;;;;5034401;28;20304;-87
2022/12/27 02:05:32;;;;;;;16.77;9.37;;;8.00;99.90;;;;;;5035351;28;20189;-87
2022/12/27 02:08:27;;;;;;;17.23;10.30;;;8.10;99.90;;;;;;5033390;28;20248;-87
2022/12/27 02:10:55;;;;;;;17.73;9.60;;;8.00;99.90;;;;;;5017954;28;20643;-87
2022/12/27 02:13:22;;;;;;;17.83;10.10;;;8.10;99.90;;;;;;5035330;28;20304;-87
2022/12/27 02:15:50;;;;;;;15.07;9.50;;;8.10;99.90;;;;;;5017741;28;20187;-87
2022/12/27 02:18:18;;;;;;;14.77;9.40;;;8.10;99.90;;;;;;5034158;28;20207;-87
2022/12/27 02:21:19;;;;;;;17.27;9.63;;;8.10;99.90;;;;;;5035656;28;20265;-87
2022/12/27 02:24:18;;;;;;;14.00;8.97;;;8.10;99.90;;;;;;5035250;28;20221;-88
2022/12/27 02:27:06;;;;;;;15.93;9.00;;;8.10;99.90;;;;;;5033959;28;20188;-87
2022/12/27 02:29:55;;;;;;;16.73;9.80;;;8.10;99.90;;;;;;5035035;28;20191;-87
2022/12/27 02:32:59;;;;;;;13.50;8.87;;;8.10;99.90;;;;;;5034801;28;20534;-87
2022/12/27 02:35:31;;;;;;;14.93;9.67;;;8.10;99.90;;;;;;5031612;28;20278;-87
2022/12/27 02:38:14;;;;;;;15.67;9.63;;;8.00;99.90;;;;;;5035242;28;20195;-87
2022/12/27 02:55:41;;;;;;;15.97;8.90;;;8.00;99.90;;;;;;5034834;28;20183;-87
2022/12/27 02:58:47;;;;;;;11.33;8.33;;;7.90;99.90;;;;;;5033997;28;20197;-88
2022/12/27 03:05:29;;;;;;;15.30;9.57;;;7.90;99.90;;;;;;5034310;28;20189;-86
2022/12/27 03:08:20;;;;;;;15.70;8.90;;;7.80;99.90;;;;;;5032616;28;20194;-84
2022/12/27 03:16:59;;;;;;;15.60;9.70;;;7.70;99.90;;;;;;5033936;28;20303;-83
2022/12/27 03:25:27;;;;;;;14.90;9.90;;;7.60;99.90;;;;;;5032740;28;20204;-84
2022/12/27 03:33:46;;;;;;;15.90;9.90;;;7.40;99.90;;;;;;5034829;28;20272;-85
2022/12/27 03:39:02;;;;;;;6.23;4.00;;;7.20;99.90;;;;;;5032996;28;20206;-83
2022/12/27 03:44:26;;;;;;;5.87;3.30;;;5.90;99.90;;;;;;5032825;28;20627;-89
2022/12/27 03:46:59;;;;;;;4.67;2.93;;;5.60;99.90;;;;;;5033091;28;20203;-88
2022/12/27 03:50:31;;;;;;;3.63;1.90;;;5.40;99.90;;;;;;5033202;28;20196;-86
2022/12/27 03:53:28;;;;;;;3.90;1.50;;;4.90;99.90;;;;;;4996591;28;20218;-87
2022/12/27 03:56:57;;;;;;;4.17;1.50;;;4.60;99.90;;;;;;4953167;28;20203;-87
2022/12/27 04:00:07;;;;;;;4.73;1.53;;;4.40;99.90;;;;;;4891672;29;20214;-87
2022/12/27 04:02:46;;;;;;;2.47;0.90;;;4.20;99.90;;;;;;4934521;29;20542;-90
2022/12/27 04:05:35;;;;;;;3.60;1.30;;;4.00;99.90;;;;;;4934781;29;20201;-89
2022/12/27 04:35:03;;;;;;;4.90;1.07;;;3.60;99.90;;;;;;4918866;29;20726;-88
2022/12/27 04:37:38;;;;;;;3.80;1.17;;;3.60;99.90;;;;;;4941083;29;20221;-89
2022/12/27 05:14:25;;;;;;;7.50;1.27;;;3.80;99.90;;;;;;4553616;27;17181373;-88
2022/12/27 05:16:53;;;;;;;7.63;1.93;;;3.90;99.90;;;;;;5151906;27;20275;-88
2022/12/27 05:19:20;;;;;;;7.90;1.57;;;3.80;99.90;;;;;;5134238;27;20209;-85
2022/12/27 05:27:37;;;;;;;5.50;1.37;;;3.90;99.90;;;;;;5127570;28;20549;-91
2022/12/27 05:30:05;;;;;;;4.33;1.30;;;3.80;99.90;;;;;;5113392;28;20192;-86
2022/12/27 05:37:07;;;;;;;8.17;1.63;;;3.70;99.90;;;;;;4970355;28;20209;-89
2022/12/27 05:39:42;;;;;;;9.10;1.70;;;3.70;99.90;;;;;;4952304;28;20202;-90
2022/12/27 05:42:33;;;;;;;6.40;1.53;;;3.60;99.90;;;;;;4953005;28;20293;-92
2022/12/27 05:45:26;;;;;;;9.47;1.70;;;3.60;99.90;;;;;;4952062;28;20261;-89
2022/12/27 05:48:20;;;;;;;10.43;1.83;;;3.60;99.90;;;;;;4953077;28;20198;-89
2022/12/27 05:50:59;;;;;;;9.53;1.63;;;3.40;99.90;;;;;;4953191;28;20602;-88
2022/12/27 05:53:36;;;;;;;12.87;2.20;;;3.50;99.90;;;;;;4952944;28;20208;-89
2022/12/27 05:56:04;;;;;;;5.17;1.47;;;3.40;99.90;;;;;;4953733;28;20327;-88
2022/12/27 05:58:35;;;;;;;9.93;1.70;;;3.40;99.90;;;;;;4969190;28;20239;-89
2022/12/27 06:01:19;;;;;;;9.97;1.90;;;3.40;99.90;;;;;;4968735;28;20240;-87
2022/12/27 06:03:52;;;;;;;7.17;1.80;;;3.40;99.90;;;;;;4952360;28;20225;-88
2022/12/27 06:06:24;;;;;;;12.30;1.87;;;3.40;99.90;;;;;;4952680;28;20198;-89
2022/12/27 06:08:55;;;;;;;8.37;2.57;;;3.40;99.90;;;;;;4968769;28;20779;-88
2022/12/27 06:11:31;;;;;;;6.97;2.33;;;3.40;99.90;;;;;;4999484;28;20226;-87
2022/12/27 06:14:09;;;;;;;9.63;2.43;;;3.40;99.90;;;;;;5092116;28;20325;-89
2022/12/27 06:16:47;;;;;;;8.80;1.93;;;3.40;99.90;;;;;;5096335;28;20180;-87
2022/12/27 06:19:16;;;;;;;10.43;2.13;;;3.40;99.90;;;;;;5094798;28;20197;-89
2022/12/27 06:21:44;;;;;;;7.87;2.20;;;3.30;99.90;;;;;;5095005;28;20197;-89
2022/12/27 06:24:22;;;;;;;13.77;2.30;;;3.30;99.90;;;;;;5095430;28;20193;-89
2022/12/27 06:27:14;;;;;;;6.10;2.00;;;3.20;99.90;;;;;;5094358;28;20193;-88
2022/12/27 06:29:47;;;;;;;12.67;2.20;;;3.20;99.90;;;;;;5079160;28;20716;-89
2022/12/27 06:32:16;;;;;;;8.07;1.60;;;3.20;99.90;;;;;;5078706;28;20711;-90
2022/12/27 06:34:54;;;;;;;8.30;2.27;;;3.20;99.90;;;;;;5080349;28;20510;-90
2022/12/27 06:37:32;;;;;;;8.33;2.30;;;3.20;99.90;;;;;;5095287;28;20228;-90
2022/12/27 06:39:59;;;;;;;10.20;2.03;;;3.30;99.90;;;;;;5078248;28;20301;-89
2022/12/27 06:42:31;;;;;;;13.63;2.40;;;3.20;99.90;;;;;;5094470;28;20228;-88
2022/12/27 06:45:05;;;;;;;7.93;2.00;;;3.20;99.90;;;;;;5095915;28;20672;-89
2022/12/27 06:47:35;;;;;;;6.67;2.27;;;3.20;99.90;;;;;;5079173;28;20203;-89
2022/12/27 06:50:14;;;;;;;8.73;2.60;;;3.10;99.90;;;;;;5079344;28;20217;-89
2022/12/27 06:52:51;;;;;;;8.00;2.20;;;3.20;99.90;;;;;;5095877;28;20194;-89
2022/12/27 06:55:40;;;;;;;6.53;1.73;;;3.20;99.90;;;;;;5094524;28;20262;-90
2022/12/27 06:58:16;;;;;;;7.57;2.00;;;3.10;99.90;;;;;;5094285;28;20199;-90
2022/12/27 07:00:50;;;;;;;10.00;2.50;;;3.10;99.90;;;;;;5094304;28;20257;-90
2022/12/27 07:03:20;;;;;;;8.53;2.00;;;3.10;99.90;;;;;;5095043;28;20225;-91
2022/12/27 07:05:53;;;;;;;14.63;2.30;;;3.00;99.90;;;;;;5077804;28;20198;-89
2022/12/27 07:08:35;;;;;;;8.23;1.93;;;3.00;99.90;;;;;;5093968;28;20228;-89
2022/12/27 07:11:16;;;;;;;8.63;2.00;;;3.00;99.90;;;;;;5094881;28;20198;-89
2022/12/27 07:13:54;;;;;;;11.40;1.83;;;3.00;99.90;;;;;;5077787;28;20285;-87
2022/12/27 07:16:26;;;;;;;9.97;2.20;;;3.00;99.90;;;;;;5094019;28;20200;-86
2022/12/27 07:18:55;;;;;;;12.20;2.37;;;3.00;99.90;;;;;;5094917;28;20197;-89
2022/12/27 07:21:25;;;;;;;10.13;2.40;;;3.10;99.90;;;;;;5093796;28;20280;-86
2022/12/27 07:23:53;;;;;;;11.07;2.50;;;3.10;99.90;;;;;;5093552;28;20557;-84
2022/12/27 07:26:23;;;;;;;10.33;2.30;;;3.00;99.90;;;;;;5075671;28;20190;-86
2022/12/27 07:28:53;;;;;;;10.60;2.50;;;3.00;99.90;;;;;;5093139;28;20231;-87
2022/12/27 07:31:23;;;;;;;7.73;2.43;;;3.00;99.90;;;;;;5076990;28;20310;-87
2022/12/27 07:33:50;;;;;;;13.13;2.53;;;3.00;99.90;;;;;;5093163;28;20221;-85
2022/12/27 08:07:00;;;;;;;10.73;2.63;;;3.20;99.90;;;;;;4992171;28;20213;-91
2022/12/27 08:09:47;;;;;;;12.37;2.13;;;3.40;99.90;;;;;;4992376;28;20259;-83
2022/12/27 08:12:44;;;;;;;8.03;2.30;;;3.60;99.90;;;;;;4992190;28;20293;-90
2022/12/27 08:15:16;;;;;;;11.10;2.87;;;3.70;99.90;;;;;;5008511;28;20210;-89
2022/12/27 08:17:46;;;;;;;13.00;2.10;;;3.70;99.90;;;;;;4976317;28;20200;-89
2022/12/27 08:21:09;;;;;;;9.53;2.27;;;3.70;99.90;;;;;;4992092;28;20219;-83
2022/12/27 08:23:36;;;;;;;9.53;2.20;;;3.70;99.90;;;;;;5008447;28;20209;-83
2022/12/27 08:26:03;;;;;;;9.83;2.57;;;3.80;99.90;;;;;;5008285;28;20196;-83
2022/12/27 08:28:30;;;;;;;10.47;2.13;;;3.80;99.90;;;;;;4994036;28;20260;-82
2022/12/27 08:30:58;;;;;;;13.57;2.60;;;3.70;99.90;;;;;;4988517;28;20594;-78
2022/12/27 08:33:26;;;;;;;9.07;2.50;;;3.80;99.90;;;;;;4988674;28;20192;-83
2022/12/27 08:35:55;;;;;;;10.70;2.27;;;3.80;99.90;;;;;;4988288;28;20200;-80
2022/12/27 08:38:23;;;;;;;9.23;2.80;;;3.90;99.90;;;;;;4988984;28;20280;-89
2022/12/27 08:41:26;;;;;;;7.60;2.17;;;4.00;99.90;;;;;;4972649;28;20193;-91
2022/12/27 08:44:28;;;;;;;12.33;2.70;;;4.10;99.90;;;;;;5069585;28;20255;-91
2022/12/27 08:47:40;;;;;;;10.63;2.30;;;4.10;99.90;;;;;;5028983;28;20295;-91
2022/12/27 08:51:03;;;;;;;18.80;2.80;;;4.10;99.90;;;;;;5027862;28;20227;-91
2022/12/27 08:53:53;;;;;;;;;;;;;;;;;;;;;
2022/12/27 08:56:56;;;;;;;14.67;2.70;;;4.20;99.90;;;;;;4983232;28;20209;-88
2022/12/27 08:59:29;;;;;;;8.67;2.70;;;4.20;99.90;;;;;;4988056;28;20185;-87
2022/12/27 09:02:36;;;;;;;10.37;3.27;;;4.30;99.90;;;;;;4967587;28;20683;-89
2022/12/27 09:05:09;;;;;;;11.07;3.00;;;4.30;99.90;;;;;;4958266;28;20206;-86
2022/12/27 09:08:23;;;;;;;16.17;3.33;;;4.30;99.90;;;;;;4973079;28;20330;-88
2022/12/27 09:11:31;;;;;;;11.33;2.87;;;4.30;99.90;;;;;;4975086;28;20264;-87
2022/12/27 09:14:09;;;;;;;11.07;3.17;;;4.40;99.90;;;;;;4975895;28;20197;-88
2022/12/27 09:17:08;;;;;;;10.77;2.83;;;4.40;99.90;;;;;;4959914;28;20225;-89
2022/12/27 09:24:12;;;;;;;9.10;2.90;;;4.40;99.90;;;;;;4917420;29;20210;-89
2022/12/27 09:27:07;;;;;;;9.17;2.63;;;4.40;99.90;;;;;;4902405;29;20251;-92
2022/12/27 09:29:35;;;;;;;10.67;3.10;;;4.40;99.90;;;;;;4924049;29;20202;-89
2022/12/27 09:32:02;;;;;;;12.37;3.10;;;4.50;99.90;;;;;;4972670;28;20260;-86
2022/12/27 09:34:36;;;;;;;9.77;2.87;;;4.50;99.90;;;;;;4961793;28;20210;-80
2022/12/27 09:37:04;;;;;;;11.73;3.00;;;4.60;99.90;;;;;;4993576;28;20239;-74
2022/12/27 09:39:31;;;;;;;6.93;2.70;;;4.40;99.90;;;;;;4961531;28;20205;-84
2022/12/27 09:41:58;;;;;;;13.50;3.10;;;4.50;99.90;;;;;;4961318;28;20685;-85
2022/12/27 09:45:05;;;;;;;14.57;3.00;;;4.40;99.90;;;;;;4993627;28;20297;-85
2022/12/27 09:48:21;;;;;;;12.87;3.10;;;4.50;99.90;;;;;;4977917;28;20251;-87
2022/12/27 09:51:25;;;;;;;6.77;2.73;;;4.50;99.90;;;;;;4980673;28;20206;-87
2022/12/27 09:54:24;;;;;;;12.80;3.60;;;4.50;99.90;;;;;;4978492;28;20217;-88
2022/12/27 10:00:36;;;;;;;12.83;3.47;;;4.50;99.90;;;;;;4927462;29;20289;-87
2022/12/27 10:03:26;;;;;;;9.80;3.80;;;4.50;99.90;;;;;;4955023;28;20233;-87
2022/12/27 10:06:11;;;;;;;11.67;3.77;;;4.50;99.90;;;;;;4954729;29;20265;-87
2022/12/27 10:09:07;;;;;;;9.33;3.40;;;4.60;99.90;;;;;;4955093;29;20209;-86
2022/12/27 10:11:43;;;;;;;13.73;3.37;;;4.50;99.90;;;;;;4956709;28;20229;-86
2022/12/27 10:14:22;;;;;;;12.80;4.10;;;4.50;99.90;;;;;;4972873;28;20194;-85
2022/12/27 10:17:06;;;;;;;12.17;3.70;;;4.50;99.90;;;;;;4973411;28;20277;-86
2022/12/27 10:19:56;;;;;;;14.43;3.60;;;4.60;99.90;;;;;;4974142;28;20258;-86
2022/12/27 10:22:41;;;;;;;9.50;4.00;;;4.60;99.90;;;;;;4957379;28;20241;-80
2022/12/27 10:25:12;;;;;;;9.03;3.23;;;4.60;99.90;;;;;;4956898;28;20232;-86
2022/12/27 10:27:40;;;;;;;7.93;3.80;;;4.70;99.90;;;;;;4958168;28;20245;-86
2022/12/27 10:30:18;;;;;;;12.13;4.10;;;4.60;99.90;;;;;;4973723;28;20605;-88
2022/12/27 10:32:46;;;;;;;10.53;3.90;;;4.60;99.90;;;;;;4974983;28;20232;-87
2022/12/27 10:35:16;;;;;;;11.43;3.80;;;4.70;99.90;;;;;;4979759;28;20679;-85
2022/12/27 10:37:45;;;;;;;14.90;4.70;;;4.70;99.90;;;;;;5046721;28;20305;-86
2022/12/27 10:40:43;;;;;;;12.37;4.00;;;4.80;99.90;;;;;;5057063;28;20198;-88
2022/12/27 10:44:24;;;;;;;14.00;4.70;;;4.70;99.90;;;;;;5040003;28;20258;-89
2022/12/27 10:47:24;;;;;;;10.77;4.23;;;4.80;99.90;;;;;;5019397;28;20294;-89
2022/12/27 10:50:22;;;;;;;12.03;5.07;;;4.70;99.90;;;;;;5036003;28;20267;-87
2022/12/27 10:53:04;;;;;;;11.23;4.80;;;4.80;99.90;;;;;;5018659;28;20209;-85
2022/12/27 10:55:48;;;;;;;10.87;4.83;;;4.70;99.90;;;;;;5033860;28;20212;-91
2022/12/27 10:58:37;;;;;;;11.20;4.80;;;4.70;99.90;;;;;;5016139;28;20203;-83
2022/12/27 11:01:29;;;;;;;11.40;4.27;;;4.70;99.90;;;;;;5034450;28;20298;-84
2022/12/27 11:07:45;;;;;;;11.23;3.83;;;4.70;99.90;;;;;;5015560;28;20286;-90
2022/12/27 11:10:19;;;;;;;11.27;4.80;;;4.70;99.90;;;;;;5007980;28;20200;-89
2022/12/27 11:13:25;;;;;;;9.87;4.00;;;4.70;99.90;;;;;;5029330;28;20191;-90
2022/12/27 11:15:55;;;;;;;9.67;4.10;;;4.70;99.90;;;;;;5031833;28;20688;-84
2022/12/27 11:18:47;;;;;;;9.20;3.60;;;4.70;99.90;;;;;;5031140;28;20203;-88
2022/12/27 11:21:52;;;;;;;9.40;3.90;;;4.70;99.90;;;;;;5009673;28;20200;-88
2022/12/27 11:24:27;;;;;;;10.63;3.67;;;4.60;99.90;;;;;;4996117;28;20242;-86
2022/12/27 11:26:58;;;;;;;7.80;3.40;;;4.60;99.90;;;;;;5011620;28;20200;-90
2022/12/27 11:29:43;;;;;;;8.67;3.30;;;4.60;99.90;;;;;;5011764;28;20196;-90
2022/12/27 11:32:10;;;;;;;8.60;3.43;;;4.50;99.90;;;;;;4994756;28;20244;-81
2022/12/27 11:34:47;;;;;;;8.47;3.50;;;4.50;99.90;;;;;;4993200;28;20725;-89
2022/12/27 11:37:21;;;;;;;7.13;3.20;;;4.60;99.90;;;;;;5008546;28;20216;-79
2022/12/27 11:40:21;;;;;;;9.47;3.93;;;4.70;99.90;;;;;;4994884;28;20529;-78
2022/12/27 11:43:04;;;;;;;8.17;3.07;;;4.70;99.90;;;;;;4995247;28;20667;-78
2022/12/27 11:45:41;;;;;;;6.40;3.07;;;4.70;99.90;;;;;;5071819;28;20276;-82
2022/12/27 11:48:27;;;;;;;10.53;3.30;;;4.90;99.90;;;;;;5072037;28;20205;-79
2022/12/27 11:51:13;;;;;;;7.63;2.97;;;4.90;99.90;;;;;;5072072;28;20542;-83
2022/12/27 11:53:55;;;;;;;9.90;3.53;;;4.80;99.90;;;;;;5055351;28;20240;-81
2022/12/27 11:56:38;;;;;;;6.80;3.30;;;4.70;99.90;;;;;;5072650;28;20227;-84
2022/12/27 11:59:27;;;;;;;10.97;2.90;;;4.60;99.90;;;;;;5073331;28;20186;-75
2022/12/27 12:02:32;;;;;;;8.90;3.33;;;4.60;99.90;;;;;;5081736;28;20311;-87
2022/12/27 12:05:18;;;;;;;11.50;4.67;;;4.50;99.90;;;;;;5076513;28;20224;-88
2022/12/27 12:08:25;;;;;;;;;;;;;;;;;;;;;
2022/12/27 12:11:50;;;;;;;11.23;2.90;;;4.50;99.90;;;;;;5094115;28;20220;-89
2022/12/27 12:15:15;;;;;;;10.07;3.17;;;4.50;99.90;;;;;;5029203;28;20195;-88
2022/12/27 12:18:47;;;;;;;9.90;3.23;;;4.50;99.90;;;;;;5013979;28;20203;-88
2022/12/27 12:21:56;;;;;;;8.17;2.93;;;4.50;99.90;;;;;;5032477;28;20639;-89
2022/12/27 12:24:42;;;;;;;5.93;2.97;;;4.50;99.90;;;;;;5015945;28;20267;-91
2022/12/27 12:28:07;;;;;;;7.63;3.30;;;4.40;99.90;;;;;;5015401;28;20232;-89
2022/12/27 12:31:23;;;;;;;7.27;2.93;;;4.40;99.90;;;;;;4975176;28;20687;-86
2022/12/27 12:34:05;;;;;;;6.47;2.93;;;4.40;99.90;;;;;;4975090;28;20297;-85
2022/12/27 12:37:34;;;;;;;11.27;3.60;;;4.30;99.90;;;;;;4975033;28;20686;-82
2022/12/27 12:40:36;;;;;;;11.17;3.50;;;4.40;99.90;;;;;;4995047;28;20216;-89
2022/12/27 12:43:42;;;;;;;9.87;3.57;;;4.30;99.90;;;;;;4978692;28;20627;-88
2022/12/27 12:46:44;;;;;;;10.33;3.50;;;4.30;99.90;;;;;;5012817;28;20258;-86
2022/12/27 12:49:32;;;;;;;6.93;3.53;;;4.40;99.90;;;;;;4997868;28;20204;-87
2022/12/27 12:52:23;;;;;;;10.30;3.73;;;4.20;99.90;;;;;;5014215;28;20582;-84
2022/12/27 12:55:09;;;;;;;7.00;3.47;;;4.30;99.90;;;;;;5014830;28;20210;-87
2022/12/27 12:58:04;;;;;;;10.03;3.70;;;4.30;99.90;;;;;;5014755;28;20227;-87
2022/12/27 13:00:37;;;;;;;10.57;3.67;;;4.20;99.90;;;;;;5014526;28;20690;-86
2022/12/27 13:03:15;;;;;;;8.97;3.80;;;4.30;99.90;;;;;;4997741;28;20233;-83
2022/12/27 13:05:50;;;;;;;11.80;4.20;;;4.30;99.90;;;;;;5019016;28;20577;-85
2022/12/27 13:08:49;;;;;;;10.63;3.87;;;4.20;99.90;;;;;;5078255;28;20189;-87
2022/12/27 13:11:34;;;;;;;8.67;3.57;;;4.20;99.90;;;;;;5077837;28;20243;-84
2022/12/27 13:14:28;;;;;;;10.07;3.97;;;4.30;99.90;;;;;;5058085;28;20192;-92
2022/12/27 13:17:05;;;;;;;8.40;3.97;;;4.30;99.90;;;;;;5057622;28;20195;-87
2022/12/27 13:19:59;;;;;;;13.83;4.30;;;4.30;99.90;;;;;;5058099;28;20212;-85
2022/12/27 13:22:59;;;;;;;10.80;4.17;;;4.20;99.90;;;;;;5058124;28;20663;-86
2022/12/27 13:25:50;;;;;;;12.03;4.33;;;4.20;99.90;;;;;;5057700;28;20203;-84
2022/12/27 13:28:41;;;;;;;10.63;4.30;;;4.20;99.90;;;;;;5076331;28;20222;-89
2022/12/27 13:31:14;;;;;;;12.03;4.50;;;4.20;99.90;;;;;;5057973;28;20194;-80
2022/12/27 13:34:07;;;;;;;13.73;4.37;;;4.30;99.90;;;;;;5076052;28;20186;-87
2022/12/27 13:37:12;;;;;;;13.10;4.80;;;4.20;99.90;;;;;;5057753;28;20195;-83
2022/12/27 13:40:00;;;;;;;14.23;5.00;;;4.20;99.90;;;;;;5057394;28;20208;-84
2022/12/27 13:43:06;;;;;;;14.07;5.23;;;4.30;99.90;;;;;;5057798;28;20629;-83
2022/12/27 13:46:25;;;;;;;11.33;5.23;;;4.30;99.90;;;;;;4977842;28;20200;-85
2022/12/27 13:49:29;;;;;;;11.03;4.90;;;4.30;99.90;;;;;;4960315;28;20768;-86
2022/12/27 13:52:22;;;;;;;15.63;5.90;;;4.20;99.90;;;;;;4972779;28;20257;-87
2022/12/27 13:55:04;;;;;;;12.50;5.47;;;4.30;99.90;;;;;;4953607;28;20652;-88
2022/12/27 13:58:07;;;;;;;12.73;5.87;;;4.20;99.90;;;;;;4958704;28;20209;-87
2022/12/27 14:00:56;;;;;;;13.03;5.67;;;4.30;99.90;;;;;;4943690;28;20700;-81
2022/12/27 14:03:51;;;;;;;12.97;5.20;;;4.30;99.90;;;;;;4958399;28;20727;-82
2022/12/27 14:06:43;;;;;;;13.37;5.60;;;4.30;99.90;;;;;;4974263;28;20229;-84
2022/12/27 14:09:31;;;;;;;15.13;5.70;;;4.30;99.90;;;;;;4935769;29;20615;-83
2022/12/27 14:12:15;;;;;;;13.13;5.90;;;4.20;99.90;;;;;;4935224;28;20226;-83
2022/12/27 14:14:45;;;;;;;13.23;5.60;;;4.30;99.90;;;;;;4935944;29;20294;-81
2022/12/27 14:17:42;;;;;;;12.27;5.90;;;4.30;99.90;;;;;;4919642;29;20231;-79
2022/12/27 14:20:27;;;;;;;15.97;6.53;;;4.30;99.90;;;;;;4935545;29;20217;-84
2022/12/27 14:23:10;;;;;;;13.43;6.20;;;4.30;99.90;;;;;;4940840;28;20205;-85
2022/12/27 14:25:59;;;;;;;14.10;6.10;;;4.30;99.90;;;;;;5034600;28;20202;-84
2022/12/27 14:28:54;;;;;;;10.30;6.03;;;4.30;99.90;;;;;;5073984;28;20221;-83
2022/12/27 14:31:31;;;;;;;17.10;6.60;;;4.20;99.90;;;;;;5072172;28;20229;-84
2022/12/27 14:34:25;;;;;;;14.17;6.47;;;4.30;99.90;;;;;;5072775;28;20205;-81
2022/12/27 14:37:13;;;;;;;14.60;5.77;;;4.30;99.90;;;;;;5055338;28;20232;-82
2022/12/27 14:39:49;;;;;;;13.33;5.23;;;4.30;99.90;;;;;;5055716;28;20212;-82
2022/12/27 14:43:10;;;;;;;8.70;5.60;;;4.20;99.90;;;;;;5072080;28;20185;-84
2022/12/27 14:46:18;;;;;;;13.37;6.00;;;4.30;99.90;;;;;;5060795;28;20203;-85
2022/12/27 14:49:11;;;;;;;11.20;5.40;;;4.20;99.90;;;;;;5012261;28;20228;-82
2022/12/27 14:51:57;;;;;;;12.10;5.40;;;4.20;99.90;;;;;;5012390;28;20203;-81
2022/12/27 14:54:56;;;;;;;11.03;5.30;;;4.20;99.90;;;;;;5012580;28;20204;-86
2022/12/27 14:57:41;;;;;;;11.37;5.00;;;4.10;99.90;;;;;;5012459;28;20258;-83
2022/12/27 15:00:23;;;;;;;13.53;5.77;;;4.10;99.90;;;;;;4996053;28;20197;-84
2022/12/27 15:03:31;;;;;;;13.03;5.30;;;4.10;99.90;;;;;;4980039;28;20251;-85
2022/12/27 15:06:42;;;;;;;10.93;5.33;;;4.00;99.90;;;;;;5012517;28;20201;-83
2022/12/27 15:09:22;;;;;;;11.40;5.20;;;4.00;99.90;;;;;;4996150;28;20242;-83
2022/12/27 15:12:38;;;;;;;13.03;5.33;;;4.00;99.90;;;;;;4996264;28;20192;-86
2022/12/27 15:15:52;;;;;;;11.17;5.20;;;4.00;99.90;;;;;;4995571;28;20200;-86
2022/12/27 15:18:43;;;;;;;8.87;5.10;;;4.10;99.90;;;;;;5013190;28;20196;-84
2022/12/27 15:21:54;;;;;;;8.67;5.07;;;4.00;99.90;;;;;;5012250;28;20209;-85
2022/12/27 15:24:33;;;;;;;11.80;5.07;;;4.00;99.90;;;;;;4937671;29;20225;-83
2022/12/27 15:27:22;;;;;;;9.50;5.07;;;4.00;99.90;;;;;;5010402;28;20211;-86
2022/12/27 15:30:09;;;;;;;11.90;5.00;;;4.00;99.90;;;;;;4995289;28;20228;-85
2022/12/27 15:32:51;;;;;;;14.63;6.47;;;4.00;99.90;;;;;;5012092;28;20665;-84
2022/12/27 15:35:43;;;;;;;9.60;4.80;;;4.00;99.90;;;;;;5012373;28;20203;-83
2022/12/27 15:38:40;;;;;;;12.23;5.20;;;3.90;99.90;;;;;;4995763;28;20200;-84
2022/12/27 15:41:07;;;;;;;9.33;4.77;;;4.00;99.90;;;;;;5011835;28;20598;-84
2022/12/27 15:43:56;;;;;;;10.90;5.40;;;4.10;99.90;;;;;;4995940;28;20250;-87
2022/12/27 15:47:03;;;;;;;9.63;5.10;;;4.10;99.90;;;;;;4995356;28;20208;-89
2022/12/27 15:49:38;;;;;;;8.90;5.07;;;4.10;99.90;;;;;;4995610;28;20192;-86
2022/12/27 15:52:30;;;;;;;11.83;5.50;;;4.10;99.90;;;;;;5011907;28;20669;-84
2022/12/27 15:55:20;;;;;;;10.20;5.23;;;4.10;99.90;;;;;;5011614;28;20213;-86
2022/12/27 15:58:12;;;;;;;9.40;4.83;;;4.10;99.90;;;;;;5012117;28;20192;-85
2022/12/27 16:00:40;;;;;;;10.03;5.03;;;4.10;99.90;;;;;;5014657;28;20293;-85
2022/12/27 16:03:41;;;;;;;11.77;5.20;;;4.20;99.90;;;;;;5055441;28;20226;-87
2022/12/27 16:06:28;;;;;;;9.77;5.00;;;4.10;99.90;;;;;;4991635;28;20562;-80
2022/12/27 16:09:26;;;;;;;14.43;5.30;;;4.10;99.90;;;;;;4976094;28;20197;-82
2022/12/27 16:12:29;;;;;;;12.13;4.83;;;4.10;99.90;;;;;;4979689;28;20185;-88
2022/12/27 16:15:36;;;;;;;10.73;5.20;;;4.20;99.90;;;;;;4999222;28;20289;-86
2022/12/27 16:18:04;;;;;;;12.37;5.47;;;4.20;99.90;;;;;;4999140;28;20211;-85
2022/12/27 16:21:34;;;;;;;10.93;5.77;;;4.10;99.90;;;;;;5013506;28;20200;-84
2022/12/27 16:24:29;;;;;;;10.63;5.23;;;4.10;99.90;;;;;;5015692;28;20197;-88
2022/12/27 16:27:04;;;;;;;11.53;5.20;;;4.10;99.90;;;;;;5016094;28;20204;-92
2022/12/27 16:29:42;;;;;;;11.43;5.87;;;4.10;99.90;;;;;;4999355;28;20210;-90
2022/12/27 16:32:16;;;;;;;9.90;4.97;;;4.10;99.90;;;;;;5015480;28;20218;-83
2022/12/27 16:34:50;;;;;;;12.13;5.33;;;4.00;99.90;;;;;;5014555;28;20299;-83
2022/12/27 16:37:41;;;;;;;10.37;5.50;;;4.10;99.90;;;;;;5015351;28;20199;-85
2022/12/27 16:40:44;;;;;;;10.73;5.23;;;4.10;99.90;;;;;;4999250;28;20680;-83
2022/12/27 16:43:30;;;;;;;10.83;5.30;;;4.10;99.90;;;;;;5097056;28;20200;-84
2022/12/27 16:46:30;;;;;;;9.60;5.00;;;4.10;99.90;;;;;;5062478;28;20227;-86
2022/12/27 16:49:25;;;;;;;12.77;4.83;;;4.10;99.90;;;;;;4998040;28;20206;-84
2022/12/27 16:52:23;;;;;;;12.97;5.27;;;4.10;99.90;;;;;;4996742;28;20204;-84
2022/12/27 16:55:01;;;;;;;9.03;4.63;;;4.20;99.90;;;;;;5009970;28;20279;-88